createdAt,value
2024-05-09T00:01:20.819Z,53.58
2024-05-09T00:06:23.182Z,54.00
2024-05-09T00:11:28.133Z,54.11
2024-05-09T00:16:33.817Z,53.92
2024-05-09T00:21:36.163Z,53.49
2024-05-09T00:26:38.803Z,53.48
2024-05-09T00:31:41.167Z,53.42
2024-05-09T00:36:47.882Z,52.77
2024-05-09T00:41:53.015Z,52.63
2024-05-09T00:46:57.744Z,52.18
2024-05-09T00:52:03.450Z,51.66
2024-05-09T00:57:08.644Z,51.53
2024-05-09T01:05:22.559Z,51.89
2024-05-09T01:10:32.221Z,51.88
2024-05-09T01:15:40.191Z,52.24
2024-05-09T01:20:45.367Z,52.06
2024-05-09T01:26:00.358Z,51.97
2024-05-09T01:31:05.875Z,52.08
2024-05-09T01:36:08.293Z,52.01
2024-05-09T01:41:10.976Z,51.75
2024-05-09T01:46:15.768Z,51.79
2024-05-09T01:51:18.671Z,51.84
2024-05-09T01:56:21.285Z,52.14
2024-05-09T02:01:23.751Z,52.46
2024-05-09T02:06:30.967Z,52.55
2024-05-09T02:11:45.001Z,52.28
2024-05-09T02:16:57.261Z,52.62
2024-05-09T02:21:59.719Z,52.81
2024-05-09T02:27:03.518Z,53.17
2024-05-09T02:32:32.777Z,53.26
2024-05-09T02:41:09.624Z,53.36
2024-05-09T02:46:14.106Z,53.85
2024-05-09T02:51:23.967Z,53.93
2024-05-09T02:56:26.300Z,54.04
2024-05-09T03:01:31.421Z,54.32
2024-05-09T03:06:34.072Z,54.19
2024-05-09T03:11:40.806Z,54.90
2024-05-09T03:17:12.216Z,55.19
2024-05-09T03:22:14.914Z,55.07
2024-05-09T03:27:18.021Z,55.19
2024-05-09T03:32:20.940Z,55.62
2024-05-09T03:42:59.825Z,55.72
2024-05-09T03:48:02.465Z,56.18
2024-05-09T03:53:40.404Z,56.47
2024-05-09T03:58:45.143Z,56.23
2024-05-09T04:03:53.361Z,56.84
2024-05-09T04:08:56.867Z,56.40
2024-05-09T04:13:59.802Z,56.86
2024-05-09T04:19:09.824Z,57.00
2024-05-09T04:24:12.389Z,56.94
2024-05-09T04:29:17.772Z,56.99
2024-05-09T04:34:21.154Z,56.86
2024-05-09T04:39:29.496Z,57.42
2024-05-09T04:44:34.593Z,57.15
2024-05-09T04:49:42.589Z,57.50
2024-05-09T04:54:53.076Z,57.14
2024-05-09T04:59:59.428Z,57.45
2024-05-09T05:05:03.139Z,57.54
2024-05-09T05:10:11.842Z,57.34
2024-05-09T05:15:22.280Z,57.61
2024-05-09T05:20:33.534Z,57.86
2024-05-09T05:25:39.387Z,57.41
2024-05-09T05:30:43.716Z,57.66
2024-05-09T05:35:50.185Z,57.51
2024-05-09T05:41:01.605Z,57.84
2024-05-09T05:46:06.112Z,57.69
2024-05-09T05:51:20.848Z,57.86
2024-05-09T05:56:35.978Z,57.71
2024-05-09T06:01:43.361Z,57.80
2024-05-09T06:06:45.738Z,58.02
2024-05-09T06:11:48.425Z,57.64
2024-05-09T06:16:50.873Z,57.69
2024-05-09T06:21:59.165Z,57.86
2024-05-09T06:27:08.242Z,57.96
2024-05-09T06:32:14.354Z,57.90
2024-05-09T06:37:17.799Z,57.61
2024-05-09T06:42:21.689Z,56.82
2024-05-09T06:47:26.455Z,56.96
2024-05-09T06:52:31.542Z,56.29
2024-05-09T06:57:39.099Z,55.67
2024-05-09T07:02:45.195Z,54.60
2024-05-09T07:07:56.843Z,53.45
2024-05-09T07:13:03.777Z,52.81
2024-05-09T07:18:21.249Z,50.76
2024-05-09T07:23:36.577Z,50.48
2024-05-09T07:28:42.786Z,50.05
2024-05-09T07:33:48.370Z,49.49
2024-05-09T07:38:53.356Z,49.43
2024-05-09T07:43:58.174Z,47.74
2024-05-09T07:50:53.168Z,46.92
2024-05-09T07:54:31.570Z,46.76
2024-05-09T07:59:37.944Z,47.30
2024-05-09T08:04:42.404Z,46.90
2024-05-09T08:09:47.189Z,45.69
2024-05-09T08:14:54.815Z,45.62
2024-05-09T08:20:01.016Z,45.32
2024-05-09T08:25:06.988Z,45.36
2024-05-09T08:30:29.704Z,45.36
2024-05-09T08:35:37.741Z,44.22
2024-05-09T08:40:45.254Z,44.37
2024-05-09T08:45:52.736Z,44.85
2024-05-09T08:50:59.668Z,46.10
2024-05-09T08:56:11.545Z,45.70
2024-05-09T09:01:40.822Z,45.89
2024-05-09T09:06:49.223Z,46.45
2024-05-09T09:11:55.756Z,45.18
2024-05-09T09:17:06.078Z,44.90
2024-05-09T09:22:18.407Z,44.51
2024-05-09T09:27:23.902Z,44.60
2024-05-09T09:32:29.466Z,44.05
2024-05-09T09:37:35.737Z,45.18
2024-05-09T09:42:45.052Z,45.17
2024-05-09T09:47:56.631Z,44.07
2024-05-09T09:53:04.246Z,43.79
2024-05-09T09:58:13.355Z,42.73
2024-05-09T10:03:29.600Z,43.80
2024-05-09T10:08:46.085Z,44.81
2024-05-09T10:13:59.459Z,44.00
2024-05-09T10:19:05.917Z,43.81
2024-05-09T10:24:08.463Z,44.22
2024-05-09T10:29:25.571Z,43.67
2024-05-09T10:34:35.782Z,43.71
2024-05-09T10:39:43.193Z,45.40
2024-05-09T10:44:50.906Z,44.45
2024-05-09T10:50:00.579Z,43.15
2024-05-09T10:55:06.332Z,43.60
2024-05-09T11:00:19.446Z,42.96
2024-05-09T11:05:34.670Z,43.01
2024-05-09T11:10:44.842Z,42.37
2024-05-09T11:15:47.281Z,42.15
2024-05-09T11:20:54.947Z,42.62
2024-05-09T11:26:04.755Z,43.00
2024-05-09T11:31:12.356Z,42.19
2024-05-09T11:36:28.667Z,42.39
2024-05-09T11:41:36.547Z,42.11
2024-05-09T11:46:43.622Z,42.53
2024-05-09T11:51:49.354Z,43.46
2024-05-09T11:56:53.883Z,43.51
2024-05-09T12:02:08.451Z,44.99
2024-05-09T12:07:13.965Z,46.37
2024-05-09T12:12:18.084Z,46.85
2024-05-09T12:17:29.704Z,46.39
2024-05-09T12:22:47.314Z,46.45
2024-05-09T12:27:53.643Z,46.87
2024-05-09T12:33:04.686Z,46.92
2024-05-09T12:38:09.588Z,46.43
2024-05-09T12:43:14.630Z,46.67
2024-05-09T12:48:24.855Z,47.17
2024-05-09T12:53:38.677Z,47.89
2024-05-09T12:58:55.814Z,47.76
2024-05-09T13:04:08.034Z,48.05
2024-05-09T13:09:25.392Z,48.88
2024-05-09T13:14:35.223Z,48.82
2024-05-09T13:19:42.197Z,48.91
2024-05-09T13:24:48.986Z,50.66
2024-05-09T13:29:58.922Z,49.94
2024-05-09T13:35:11.822Z,51.53
2024-05-09T13:45:47.045Z,52.81
2024-05-09T13:50:54.171Z,53.01
2024-05-09T13:56:03.498Z,52.49
2024-05-09T14:01:20.122Z,53.14
2024-05-09T14:06:23.368Z,52.76
2024-05-09T14:11:29.536Z,51.21
2024-05-09T14:16:39.516Z,51.23
2024-05-09T14:21:45.807Z,52.29
2024-05-09T14:26:52.809Z,52.89
2024-05-09T14:32:06.018Z,53.01
2024-05-09T14:37:09.881Z,53.32
2024-05-09T14:42:25.390Z,54.00
2024-05-09T14:47:47.560Z,53.52
2024-05-09T14:52:56.396Z,55.51
2024-05-09T14:58:04.953Z,56.37
2024-05-09T15:03:12.690Z,57.05
2024-05-09T15:08:20.078Z,57.67
2024-05-09T15:13:29.255Z,58.09
2024-05-09T15:18:33.214Z,58.43
2024-05-09T15:23:36.477Z,58.66
2024-05-09T15:28:44.686Z,60.07
2024-05-09T15:33:54.390Z,61.47
2024-05-09T15:39:04.361Z,62.04
2024-05-09T15:44:13.234Z,62.24
2024-05-09T15:49:19.774Z,61.59
2024-05-09T15:54:25.453Z,59.19
2024-05-09T15:59:51.782Z,58.75
2024-05-09T16:04:57.839Z,56.84
2024-05-09T16:10:05.330Z,58.98
2024-05-09T16:15:18.166Z,58.79
2024-05-09T16:20:51.311Z,60.00
2024-05-09T16:26:00.675Z,61.02
2024-05-09T16:31:08.120Z,60.61
2024-05-09T16:36:27.167Z,59.29
2024-05-09T16:41:37.115Z,59.05
2024-05-09T16:47:20.644Z,59.73
2024-05-09T16:52:24.758Z,58.68
2024-05-09T16:57:44.130Z,59.96
2024-05-09T17:03:00.402Z,59.49
2024-05-09T17:08:12.138Z,59.44
2024-05-09T17:13:25.155Z,57.99
2024-05-09T17:18:38.843Z,58.04
2024-05-09T17:23:49.084Z,57.54
2024-05-09T17:28:51.887Z,59.25
2024-05-09T17:34:07.101Z,59.56
2024-05-09T17:39:09.845Z,59.33
2024-05-09T17:44:13.228Z,59.33
2024-05-09T17:49:28.915Z,58.20
2024-05-09T17:54:36.230Z,57.64
2024-05-09T18:00:11.320Z,56.88
2024-05-09T18:05:23.591Z,56.82
2024-05-09T18:10:35.422Z,56.74
2024-05-09T18:15:43.112Z,57.79
2024-05-09T18:21:00.945Z,58.26
2024-05-09T18:26:10.931Z,57.61
2024-05-09T18:31:19.388Z,58.14
2024-05-09T18:36:24.560Z,58.68
2024-05-09T18:41:27.725Z,58.64
2024-05-09T18:46:45.928Z,58.06
2024-05-09T18:51:52.425Z,58.14
2024-05-09T18:56:56.768Z,58.57
2024-05-09T19:02:10.782Z,59.28
2024-05-09T19:07:13.775Z,60.84
2024-05-09T19:12:23.774Z,59.72
2024-05-09T19:17:34.659Z,60.42
2024-05-09T19:22:40.999Z,60.55
2024-05-09T19:27:44.416Z,60.73
2024-05-09T19:32:48.477Z,61.37
2024-05-09T19:38:12.211Z,61.03
2024-05-09T19:43:19.961Z,61.15
2024-05-09T19:48:29.306Z,61.04
2024-05-09T19:53:36.141Z,61.18
2024-05-09T19:58:55.568Z,61.18
2024-05-09T20:03:59.668Z,60.79
2024-05-09T20:09:06.034Z,61.18
2024-05-09T20:14:12.401Z,61.47
2024-05-09T20:19:22.127Z,61.70
2024-05-09T20:24:27.154Z,61.97
2024-05-09T20:29:30.959Z,62.10
2024-05-09T20:34:38.203Z,62.13
2024-05-09T20:39:48.046Z,62.71
2024-05-09T20:44:55.825Z,62.87
2024-05-09T20:50:02.631Z,62.54
2024-05-09T20:55:06.698Z,62.88
2024-05-09T21:00:18.745Z,62.67
2024-05-09T21:05:32.227Z,63.09
2024-05-09T21:10:37.202Z,62.97
2024-05-09T21:15:43.983Z,63.34
2024-05-09T21:20:47.275Z,63.30
2024-05-09T21:25:59.411Z,63.40
2024-05-09T21:31:07.344Z,63.33
2024-05-09T21:36:12.619Z,63.45
2024-05-09T21:41:20.429Z,63.59
2024-05-09T21:46:27.050Z,63.39
2024-05-09T21:51:31.197Z,63.56
2024-05-09T21:56:38.554Z,63.53
2024-05-09T22:01:53.238Z,63.89
2024-05-09T22:07:02.208Z,63.99
2024-05-09T22:12:10.861Z,63.70
2024-05-09T22:17:14.853Z,63.83
2024-05-09T22:22:28.220Z,63.67
2024-05-09T22:27:35.301Z,63.40
2024-05-09T22:32:45.411Z,63.10
2024-05-09T22:37:54.068Z,62.93
2024-05-09T22:43:00.044Z,62.30
2024-05-09T22:48:19.063Z,61.84
2024-05-09T22:53:28.899Z,61.91
2024-05-09T22:58:37.203Z,61.54
2024-05-09T23:03:46.996Z,61.45
2024-05-09T23:08:53.267Z,61.37
2024-05-09T23:14:00.120Z,61.62
2024-05-09T23:19:23.758Z,61.67
2024-05-09T23:24:38.263Z,61.54
2024-05-09T23:29:51.204Z,61.45
2024-05-09T23:35:13.750Z,62.21
2024-05-09T23:40:37.990Z,62.32
2024-05-09T23:45:45.333Z,62.15
2024-05-09T23:50:56.757Z,62.90
2024-05-09T23:56:11.661Z,62.93
